createdAt,value
2023-04-27T00:00:50.253Z,5.00
2023-04-27T00:03:28.792Z,4.70
2023-04-27T00:06:09.348Z,4.20
2023-04-27T00:08:48.560Z,4.40
2023-04-27T00:11:27.588Z,4.50
2023-04-27T00:14:06.089Z,4.40
2023-04-27T00:16:45.312Z,4.40
2023-04-27T00:19:23.840Z,5.70
2023-04-27T00:22:02.026Z,4.90
2023-04-27T00:24:39.825Z,5.50
2023-04-27T00:27:18.443Z,4.70
2023-04-27T00:29:56.845Z,5.40
2023-04-27T00:32:35.038Z,4.40
2023-04-27T00:35:08.047Z,4.80
2023-04-27T00:37:46.870Z,4.20
2023-04-27T00:40:17.567Z,3.90
2023-04-27T00:42:53.836Z,4.70
2023-04-27T00:45:32.449Z,3.50
2023-04-27T00:48:12.213Z,4.60
2023-04-27T00:50:51.184Z,4.70
2023-04-27T00:53:30.182Z,5.70
2023-04-27T00:56:13.832Z,5.10
2023-04-27T00:58:52.400Z,5.10
2023-04-27T01:01:24.259Z,4.50
2023-04-27T01:04:03.742Z,5.90
2023-04-27T01:06:42.852Z,5.50
2023-04-27T01:09:21.954Z,5.60
2023-04-27T01:12:01.533Z,6.50
2023-04-27T01:14:41.167Z,5.50
2023-04-27T01:17:19.826Z,5.00
2023-04-27T01:19:59.838Z,5.70
2023-04-27T01:22:38.140Z,5.50
2023-04-27T01:25:17.403Z,5.50
2023-04-27T01:27:55.647Z,4.90
2023-04-27T01:30:33.805Z,4.70
2023-04-27T01:33:14.192Z,4.40
2023-04-27T01:35:52.928Z,4.40
2023-04-27T01:38:31.734Z,4.30
2023-04-27T01:41:13.516Z,5.80
2023-04-27T01:43:51.977Z,5.30
2023-04-27T01:46:30.690Z,5.00
2023-04-27T01:49:10.524Z,5.00
2023-04-27T01:51:49.171Z,5.00
2023-04-27T01:54:28.761Z,5.30
2023-04-27T01:57:00.145Z,5.20
2023-04-27T01:59:35.504Z,6.10
2023-04-27T02:02:14.548Z,5.40
2023-04-27T02:04:52.644Z,5.30
2023-04-27T02:07:32.413Z,6.20
2023-04-27T02:10:12.195Z,5.50
2023-04-27T02:12:51.057Z,5.70
2023-04-27T02:15:29.851Z,5.60
2023-04-27T02:18:08.798Z,5.70
2023-04-27T02:20:47.893Z,5.50
2023-04-27T02:23:26.438Z,5.50
2023-04-27T02:26:04.602Z,6.20
2023-04-27T02:28:43.279Z,5.20
2023-04-27T02:31:24.261Z,4.70
2023-04-27T02:34:03.049Z,6.70
2023-04-27T02:36:42.609Z,5.60
2023-04-27T02:39:21.544Z,5.60
2023-04-27T02:41:59.954Z,6.00
2023-04-27T02:44:34.632Z,5.60
2023-04-27T02:47:14.330Z,5.80
2023-04-27T02:49:53.175Z,5.90
2023-04-27T02:52:32.440Z,5.80
2023-04-27T02:55:12.339Z,5.60
2023-04-27T02:57:49.643Z,6.90
2023-04-27T03:00:23.215Z,6.20
2023-04-27T03:02:57.910Z,6.00
2023-04-27T03:05:38.297Z,6.40
2023-04-27T03:08:17.151Z,6.40
2023-04-27T03:10:55.432Z,6.20
2023-04-27T03:13:45.417Z,5.30
2023-04-27T03:16:18.311Z,6.70
2023-04-27T03:18:57.687Z,7.10
2023-04-27T03:21:36.650Z,6.50
2023-04-27T03:24:15.437Z,6.60
2023-04-27T03:26:53.526Z,5.50
2023-04-27T03:29:31.938Z,7.00
2023-04-27T03:32:11.367Z,6.80
2023-04-27T03:34:51.147Z,6.40
2023-04-27T03:37:23.015Z,7.40
2023-04-27T03:40:02.725Z,6.80
2023-04-27T03:42:41.034Z,7.20
2023-04-27T03:45:24.845Z,7.90
2023-04-27T03:48:04.501Z,6.70
2023-04-27T03:50:42.865Z,7.20
2023-04-27T03:53:21.315Z,7.20
2023-04-27T03:55:59.786Z,6.50
2023-04-27T03:58:38.545Z,6.60
2023-04-27T04:01:19.247Z,6.80
2023-04-27T04:03:58.048Z,7.90
2023-04-27T04:06:36.669Z,6.30
2023-04-27T04:09:15.731Z,6.90
2023-04-27T04:11:54.012Z,7.40
2023-04-27T04:14:32.992Z,7.60
2023-04-27T04:17:08.093Z,7.40
2023-04-27T04:19:39.920Z,8.00
2023-04-27T04:22:19.191Z,7.60
2023-04-27T04:24:57.369Z,8.00
2023-04-27T04:27:36.573Z,7.30
2023-04-27T04:30:16.830Z,7.90
2023-04-27T04:32:55.565Z,7.90
2023-04-27T04:35:34.534Z,8.50
2023-04-27T04:38:13.513Z,8.00
2023-04-27T04:40:53.122Z,7.90
2023-04-27T04:43:32.277Z,7.20
2023-04-27T04:46:08.768Z,6.80
2023-04-27T04:48:47.268Z,8.00
2023-04-27T04:51:25.896Z,7.10
2023-04-27T04:54:04.732Z,7.60
2023-04-27T04:56:43.000Z,8.40
2023-04-27T04:59:21.294Z,9.70
2023-04-27T05:01:59.924Z,7.90
2023-04-27T05:04:38.983Z,10.10
2023-04-27T05:07:21.515Z,9.30
2023-04-27T05:10:05.989Z,8.10
2023-04-27T05:12:44.800Z,6.60
2023-04-27T05:15:23.408Z,7.90
2023-04-27T05:18:03.164Z,7.80
2023-04-27T05:20:44.761Z,10.80
2023-04-27T05:23:22.887Z,7.00
2023-04-27T05:26:02.884Z,8.30
2023-04-27T05:28:42.439Z,7.90
2023-04-27T05:31:20.111Z,8.40
2023-04-27T05:33:58.988Z,6.40
2023-04-27T05:36:38.571Z,7.40
2023-04-27T05:39:17.080Z,8.80
2023-04-27T05:41:56.004Z,7.50
2023-04-27T05:44:29.706Z,7.30
2023-04-27T05:47:02.608Z,7.20
2023-04-27T05:49:40.840Z,4.80
2023-04-27T05:52:20.684Z,8.00
2023-04-27T05:55:00.034Z,7.00
2023-04-27T05:57:37.919Z,7.70
2023-04-27T06:00:18.093Z,8.80
2023-04-27T06:02:58.027Z,6.30
2023-04-27T06:05:36.979Z,7.90
2023-04-27T06:08:15.227Z,7.30
2023-04-27T06:10:54.269Z,7.40
2023-04-27T06:13:33.719Z,7.80
2023-04-27T06:16:13.733Z,9.40
2023-04-27T06:18:52.345Z,8.30
2023-04-27T06:21:30.649Z,7.30
2023-04-27T06:24:08.750Z,7.80
2023-04-27T06:26:47.029Z,7.90
2023-04-27T06:29:25.033Z,6.20
2023-04-27T06:32:06.974Z,7.90
2023-04-27T06:34:46.088Z,7.30
2023-04-27T06:37:25.116Z,8.30
2023-04-27T06:40:04.546Z,5.40
2023-04-27T06:42:51.423Z,7.60
2023-04-27T06:45:29.975Z,7.10
2023-04-27T06:48:09.911Z,7.90
2023-04-27T06:50:48.874Z,7.90
2023-04-27T06:53:27.380Z,6.90
2023-04-27T06:56:06.238Z,6.90
2023-04-27T06:58:45.035Z,6.40
2023-04-27T07:01:23.432Z,8.00
2023-04-27T07:04:03.319Z,6.60
2023-04-27T07:12:05.880Z,6.90
2023-04-27T07:14:44.852Z,7.00
2023-04-27T07:17:24.630Z,7.00
2023-04-27T07:20:07.848Z,7.40
2023-04-27T07:22:47.114Z,6.50
2023-04-27T07:25:23.767Z,5.50
2023-04-27T07:27:55.625Z,5.90
2023-04-27T07:30:27.014Z,6.00
2023-04-27T07:33:06.878Z,4.90
2023-04-27T07:35:46.881Z,5.10
2023-04-27T07:38:25.942Z,4.40
2023-04-27T07:41:07.002Z,4.90
2023-04-27T07:43:47.070Z,4.70
2023-04-27T07:46:26.881Z,4.50
2023-04-27T07:49:07.459Z,3.60
2023-04-27T07:51:46.699Z,4.00
2023-04-27T07:54:26.138Z,4.70
2023-04-27T07:57:08.032Z,3.40
2023-04-27T07:59:46.407Z,3.70
2023-04-27T08:02:25.615Z,4.40
2023-04-27T08:05:06.181Z,4.40
2023-04-27T08:07:47.957Z,4.70
2023-04-27T08:10:27.633Z,6.30
2023-04-27T08:13:11.364Z,5.20
2023-04-27T08:15:47.852Z,4.70
2023-04-27T08:18:27.235Z,5.80
2023-04-27T08:21:07.942Z,4.70
2023-04-27T08:23:46.891Z,5.00
2023-04-27T08:26:26.456Z,5.50
2023-04-27T08:29:19.288Z,5.80
2023-04-27T08:32:07.692Z,5.40
2023-04-27T08:34:48.020Z,5.40
2023-04-27T08:37:27.840Z,5.20
2023-04-27T08:40:10.383Z,5.50
2023-04-27T08:43:00.620Z,10.20
2023-04-27T08:45:40.873Z,6.00
2023-04-27T08:48:22.746Z,6.10
2023-04-27T08:51:02.187Z,5.90
2023-04-27T08:53:48.663Z,7.30
2023-04-27T08:56:29.607Z,7.20
2023-04-27T08:59:18.110Z,5.80
2023-04-27T09:01:50.501Z,5.80
2023-04-27T09:04:38.602Z,7.50
2023-04-27T09:07:19.355Z,5.40
2023-04-27T09:09:51.760Z,5.60
2023-04-27T09:12:29.768Z,5.90
2023-04-27T09:15:09.901Z,5.10
2023-04-27T09:20:27.933Z,5.10
2023-04-27T09:23:07.974Z,5.40
2023-04-27T09:25:47.877Z,5.60
2023-04-27T09:28:34.221Z,4.30
2023-04-27T09:31:12.226Z,5.10
2023-04-27T09:34:00.994Z,4.40
2023-04-27T09:36:34.785Z,5.20
2023-04-27T09:39:12.684Z,4.10
2023-04-27T09:41:51.198Z,4.50
2023-04-27T09:44:30.896Z,6.30
2023-04-27T09:47:11.501Z,4.50
2023-04-27T09:49:51.401Z,5.80
2023-04-27T09:52:30.770Z,5.40
2023-04-27T09:55:11.835Z,4.90
2023-04-27T09:58:29.608Z,5.60
2023-04-27T10:01:28.020Z,4.90
2023-04-27T10:04:35.543Z,4.30
2023-04-27T10:07:20.169Z,4.50
2023-04-27T10:09:52.795Z,4.70
2023-04-27T10:12:37.432Z,5.10
2023-04-27T10:15:28.525Z,3.40
2023-04-27T10:18:12.129Z,3.40
2023-04-27T10:20:53.205Z,4.00
2023-04-27T10:23:33.214Z,3.20
2023-04-27T10:26:14.876Z,4.10
2023-04-27T10:29:11.326Z,3.60
2023-04-27T10:31:53.088Z,3.20
2023-04-27T10:34:38.501Z,2.40
2023-04-27T10:37:14.846Z,3.70
2023-04-27T10:39:54.771Z,3.10
2023-04-27T10:42:33.586Z,2.70
2023-04-27T10:45:13.379Z,3.70
2023-04-27T10:48:00.890Z,2.80
2023-04-27T10:50:33.515Z,2.90
2023-04-27T10:53:13.276Z,2.80
2023-04-27T10:55:46.363Z,3.80
2023-04-27T10:58:41.353Z,3.10
2023-04-27T11:01:34.091Z,3.50
2023-04-27T11:04:14.323Z,3.30
2023-04-27T11:06:55.163Z,3.10
2023-04-27T11:09:38.181Z,3.50
2023-04-27T11:12:19.438Z,4.10
2023-04-27T11:15:07.190Z,3.40
2023-04-27T11:17:47.917Z,3.60
2023-04-27T11:20:33.116Z,4.50
2023-04-27T11:23:13.670Z,3.60
2023-04-27T11:25:53.864Z,3.10
2023-04-27T11:28:33.708Z,2.80
2023-04-27T11:31:14.113Z,2.80
2023-04-27T11:33:56.114Z,2.40
2023-04-27T11:36:34.724Z,2.50
2023-04-27T11:39:22.587Z,2.80
2023-04-27T11:41:56.096Z,2.80
2023-04-27T11:44:35.456Z,2.70
2023-04-27T11:47:23.229Z,2.80
2023-04-27T11:50:08.607Z,2.10
2023-04-27T11:52:51.041Z,2.80
2023-04-27T11:55:31.571Z,3.00
2023-04-27T11:58:20.054Z,2.90
2023-04-27T12:01:01.437Z,2.70
2023-04-27T12:03:41.329Z,3.30
2023-04-27T12:06:32.630Z,2.20
2023-04-27T12:09:05.889Z,3.00
2023-04-27T12:11:44.419Z,2.70
2023-04-27T12:14:19.795Z,2.90
2023-04-27T12:16:58.865Z,3.00
2023-04-27T12:19:45.655Z,3.10
2023-04-27T12:22:29.646Z,2.30
2023-04-27T12:25:18.242Z,2.30
2023-04-27T12:27:56.911Z,3.50
2023-04-27T12:30:36.910Z,3.20
2023-04-27T12:33:13.416Z,3.40
2023-04-27T12:35:57.213Z,3.10
2023-04-27T12:38:36.105Z,2.70
2023-04-27T12:41:16.839Z,3.00
2023-04-27T12:43:56.952Z,2.60
2023-04-27T12:46:36.618Z,2.50
2023-04-27T12:49:16.726Z,2.10
2023-04-27T12:51:54.424Z,2.20
2023-04-27T12:54:33.558Z,2.80
2023-04-27T12:57:14.880Z,2.60
2023-04-27T12:59:55.167Z,2.40
2023-04-27T13:02:35.522Z,2.30
2023-04-27T13:05:16.346Z,2.90
2023-04-27T13:07:56.026Z,2.40
2023-04-27T13:10:35.148Z,2.70
2023-04-27T13:13:15.803Z,2.40
2023-04-27T13:15:49.873Z,2.30
2023-04-27T13:18:33.578Z,2.20
2023-04-27T13:21:16.912Z,2.50
2023-04-27T13:24:00.032Z,2.60
2023-04-27T13:26:37.230Z,2.00
2023-04-27T13:29:17.756Z,2.70
2023-04-27T13:31:56.985Z,3.20
2023-04-27T13:34:38.521Z,2.90
2023-04-27T13:37:17.904Z,2.90
2023-04-27T13:39:57.281Z,2.50
2023-04-27T13:42:36.311Z,2.50
2023-04-27T13:45:16.746Z,2.30
2023-04-27T13:47:56.248Z,2.10
2023-04-27T13:50:36.504Z,2.80
2023-04-27T13:53:18.852Z,2.80
2023-04-27T13:55:56.779Z,2.60
2023-04-27T13:58:37.546Z,2.90
2023-04-27T14:01:18.062Z,4.30
2023-04-27T14:03:58.403Z,3.70
2023-04-27T14:06:39.185Z,2.20
2023-04-27T14:09:18.993Z,2.80
2023-04-27T14:11:58.662Z,3.80
2023-04-27T14:14:37.374Z,2.50
2023-04-27T14:17:16.685Z,2.40
2023-04-27T14:19:55.236Z,2.00
2023-04-27T14:22:34.464Z,1.40
2023-04-27T14:25:08.036Z,2.30
2023-04-27T14:27:47.006Z,2.30
2023-04-27T14:30:25.499Z,1.70
2023-04-27T14:33:03.249Z,2.60
2023-04-27T14:35:44.497Z,2.10
2023-04-27T14:38:22.923Z,2.30
2023-04-27T14:41:03.777Z,2.30
2023-04-27T14:43:49.240Z,2.30
2023-04-27T14:46:27.380Z,1.70
2023-04-27T14:49:06.636Z,2.00
2023-04-27T14:51:45.363Z,2.40
2023-04-27T14:54:23.384Z,2.40
2023-04-27T14:57:02.569Z,2.60
2023-04-27T14:59:41.841Z,2.30
2023-04-27T15:02:20.294Z,2.60
2023-04-27T15:04:59.506Z,2.60
2023-04-27T15:07:38.695Z,4.40
2023-04-27T15:10:17.543Z,2.00
2023-04-27T15:12:56.956Z,2.30
2023-04-27T15:15:35.028Z,3.20
2023-04-27T15:18:13.571Z,2.20
2023-04-27T15:20:58.917Z,2.50
2023-04-27T15:23:37.596Z,2.30
2023-04-27T15:26:15.957Z,2.60
2023-04-27T15:28:54.040Z,2.10
2023-04-27T15:31:33.312Z,2.80
2023-04-27T15:34:12.737Z,2.30
2023-04-27T15:36:46.797Z,2.40
2023-04-27T15:42:01.920Z,2.90
2023-04-27T15:44:40.922Z,2.40
2023-04-27T15:47:20.211Z,2.80
2023-04-27T15:49:58.494Z,3.40
2023-04-27T15:52:37.412Z,2.70
2023-04-27T15:55:15.812Z,3.10
2023-04-27T15:57:53.805Z,2.80
2023-04-27T16:00:28.212Z,2.60
2023-04-27T16:05:44.807Z,2.40
2023-04-27T16:08:23.411Z,3.80
2023-04-27T16:11:01.405Z,3.00
2023-04-27T16:13:40.048Z,2.90
2023-04-27T16:16:19.204Z,3.00
2023-04-27T16:18:57.145Z,2.90
2023-04-27T16:21:36.220Z,2.90
2023-04-27T16:24:15.041Z,3.00
2023-04-27T16:26:51.976Z,3.30
2023-04-27T16:29:28.705Z,3.40
2023-04-27T16:32:03.283Z,2.80
2023-04-27T16:34:43.558Z,2.60
2023-04-27T16:37:23.695Z,3.10
2023-04-27T16:40:07.524Z,2.80
2023-04-27T16:42:44.363Z,2.30
2023-04-27T16:45:22.413Z,2.60
2023-04-27T16:48:01.120Z,2.60
2023-04-27T16:50:39.930Z,3.10
2023-04-27T16:53:22.336Z,3.30
2023-04-27T16:56:02.570Z,2.80
2023-04-27T16:58:40.323Z,3.00
2023-04-27T17:01:18.807Z,3.70
2023-04-27T17:04:03.950Z,3.10
2023-04-27T17:06:42.230Z,3.00
2023-04-27T17:09:20.565Z,3.20
2023-04-27T17:11:59.376Z,3.40
2023-04-27T17:14:38.902Z,3.10
2023-04-27T17:17:17.362Z,2.50
2023-04-27T17:19:55.746Z,2.80
2023-04-27T17:22:34.062Z,3.10
2023-04-27T17:25:14.105Z,3.00
2023-04-27T17:27:53.325Z,3.50
2023-04-27T17:30:33.013Z,4.00
2023-04-27T17:33:16.825Z,4.20
2023-04-27T17:35:56.092Z,3.90
2023-04-27T17:38:35.422Z,3.90
2023-04-27T17:41:15.376Z,3.50
2023-04-27T17:43:54.087Z,4.00
2023-04-27T17:46:33.552Z,3.80
2023-04-27T17:49:14.970Z,3.70
2023-04-27T17:51:55.815Z,3.10
2023-04-27T17:54:35.532Z,3.80
2023-04-27T17:57:15.017Z,3.40
2023-04-27T17:59:54.088Z,3.30
2023-04-27T18:02:33.138Z,3.50
2023-04-27T18:05:13.223Z,5.40
2023-04-27T18:07:55.824Z,3.60
2023-04-27T18:10:34.350Z,3.30
2023-04-27T18:13:14.619Z,3.80
2023-04-27T18:15:47.190Z,4.00
2023-04-27T18:18:27.576Z,4.40
2023-04-27T18:21:08.322Z,4.40
2023-04-27T18:23:47.297Z,4.10
2023-04-27T18:26:25.767Z,4.30
2023-04-27T18:29:05.905Z,4.40
2023-04-27T18:31:53.790Z,4.60
2023-04-27T18:34:32.561Z,4.20
2023-04-27T18:37:11.635Z,4.00
2023-04-27T18:39:50.897Z,4.80
2023-04-27T18:42:31.694Z,5.20
2023-04-27T18:45:10.488Z,4.80
2023-04-27T18:47:49.520Z,4.70
2023-04-27T18:50:27.479Z,4.40
2023-04-27T18:53:05.479Z,4.90
2023-04-27T18:55:44.041Z,5.60
2023-04-27T18:58:22.674Z,5.10
2023-04-27T19:01:01.229Z,5.10
2023-04-27T19:03:41.092Z,4.90
2023-04-27T19:06:21.322Z,4.30
2023-04-27T19:09:01.651Z,4.80
2023-04-27T19:11:41.234Z,4.60
2023-04-27T19:14:20.204Z,5.20
2023-04-27T19:16:56.902Z,5.50
2023-04-27T19:19:30.267Z,4.20
2023-04-27T19:22:08.897Z,4.60
2023-04-27T19:24:47.308Z,3.90
2023-04-27T19:27:26.071Z,4.60
2023-04-27T19:30:04.929Z,4.00
2023-04-27T19:32:43.895Z,4.30
2023-04-27T19:35:24.218Z,4.30
2023-04-27T19:38:02.547Z,4.50
2023-04-27T19:40:40.699Z,4.70
2023-04-27T19:43:24.832Z,4.60
2023-04-27T19:46:03.206Z,4.90
2023-04-27T19:48:42.497Z,4.70
2023-04-27T19:51:22.070Z,4.00
2023-04-27T19:54:00.849Z,5.00
2023-04-27T19:56:39.533Z,4.00
2023-04-27T19:59:20.551Z,3.90
2023-04-27T20:02:00.181Z,4.40
2023-04-27T20:04:40.289Z,4.20
2023-04-27T20:07:19.497Z,4.20
2023-04-27T20:09:58.765Z,4.20
2023-04-27T20:12:54.478Z,3.90
2023-04-27T20:15:31.642Z,4.40
2023-04-27T20:18:09.656Z,4.70
2023-04-27T20:20:48.585Z,8.40
2023-04-27T20:23:27.361Z,10.50
2023-04-27T20:26:06.164Z,5.50
2023-04-27T20:28:46.164Z,4.30
2023-04-27T20:31:27.072Z,4.50
2023-04-27T20:34:06.320Z,4.50
2023-04-27T20:36:44.678Z,5.00
2023-04-27T20:39:24.338Z,5.30
2023-04-27T20:42:04.096Z,4.90
2023-04-27T20:44:49.243Z,5.00
2023-04-27T20:47:27.945Z,5.40
2023-04-27T20:50:07.377Z,5.50
2023-04-27T20:52:47.151Z,6.00
2023-04-27T20:55:25.803Z,5.40
2023-04-27T20:58:03.891Z,4.70
2023-04-27T21:00:43.220Z,5.80
2023-04-27T21:03:22.132Z,4.70
2023-04-27T21:06:00.430Z,5.50
2023-04-27T21:08:38.819Z,5.10
2023-04-27T21:11:18.350Z,6.00
2023-04-27T21:13:57.841Z,6.20
2023-04-27T21:16:37.059Z,6.30
2023-04-27T21:19:18.372Z,5.20
2023-04-27T21:24:34.177Z,4.90
2023-04-27T21:27:14.305Z,5.90
2023-04-27T21:29:52.398Z,5.50
2023-04-27T21:32:31.512Z,6.20
2023-04-27T21:35:12.099Z,5.40
2023-04-27T21:37:50.755Z,5.90
2023-04-27T21:40:31.272Z,5.30
2023-04-27T21:43:13.071Z,6.50
2023-04-27T21:45:51.981Z,6.40
2023-04-27T21:48:22.116Z,6.00
2023-04-27T21:50:54.349Z,7.00
2023-04-27T21:53:33.542Z,6.20
2023-04-27T21:56:11.972Z,6.20
2023-04-27T21:58:52.306Z,6.20
2023-04-27T22:01:31.124Z,6.40
2023-04-27T22:04:10.689Z,7.20
2023-04-27T22:06:49.490Z,6.80
2023-04-27T22:09:28.338Z,7.40
2023-04-27T22:12:07.327Z,6.10
2023-04-27T22:14:49.345Z,7.50
2023-04-27T22:17:28.171Z,8.00
2023-04-27T22:20:09.443Z,6.80
2023-04-27T22:22:50.167Z,7.40
2023-04-27T22:25:28.751Z,6.00
2023-04-27T22:28:07.396Z,7.40
2023-04-27T22:30:54.030Z,8.00
2023-04-27T22:33:29.454Z,7.80
2023-04-27T22:36:07.755Z,7.60
2023-04-27T22:38:45.985Z,7.50
2023-04-27T22:41:24.550Z,8.10
2023-04-27T22:44:02.656Z,7.10
2023-04-27T22:46:40.373Z,7.00
2023-04-27T22:49:18.619Z,8.00
2023-04-27T22:51:58.813Z,8.60
2023-04-27T22:54:37.032Z,8.50
2023-04-27T22:57:15.467Z,9.20
2023-04-27T22:59:53.309Z,8.10
2023-04-27T23:02:31.884Z,7.00
2023-04-27T23:05:12.717Z,7.50
2023-04-27T23:07:52.255Z,9.20
2023-04-27T23:10:31.662Z,7.30
2023-04-27T23:13:13.226Z,7.40
2023-04-27T23:15:51.327Z,7.60
2023-04-27T23:18:29.576Z,9.50
2023-04-27T23:21:10.673Z,8.30
2023-04-27T23:23:49.783Z,7.40
2023-04-27T23:26:28.399Z,9.70
2023-04-27T23:29:07.356Z,7.40
2023-04-27T23:31:38.837Z,8.20
2023-04-27T23:34:13.681Z,6.40
2023-04-27T23:36:51.607Z,7.10
2023-04-27T23:39:30.497Z,8.00
2023-04-27T23:42:09.452Z,7.70
2023-04-27T23:44:48.080Z,7.80
2023-04-27T23:47:26.134Z,8.20
2023-04-27T23:50:05.076Z,8.30
2023-04-27T23:52:43.282Z,7.90
2023-04-27T23:55:21.967Z,8.60
2023-04-27T23:57:59.824Z,7.70
